createdAt,value
2018-12-14T00:00:29.892Z,2.85
2018-12-14T00:01:29.720Z,2.82
2018-12-14T00:02:29.756Z,2.90
2018-12-14T00:03:29.739Z,2.99
2018-12-14T00:04:29.779Z,2.87
2018-12-14T00:05:29.758Z,2.85
2018-12-14T00:06:29.845Z,2.84
2018-12-14T00:07:29.729Z,2.75
2018-12-14T00:08:29.765Z,2.81
2018-12-14T00:09:29.755Z,2.72
2018-12-14T00:10:29.710Z,2.77
2018-12-14T00:11:29.709Z,2.82
2018-12-14T00:12:29.695Z,2.75
2018-12-14T00:13:29.718Z,2.78
2018-12-14T00:14:29.698Z,2.74
2018-12-14T00:15:29.670Z,2.72
2018-12-14T00:16:31.452Z,2.81
2018-12-14T00:17:29.713Z,2.82
2018-12-14T00:18:29.725Z,2.81
2018-12-14T00:19:29.666Z,2.84
2018-12-14T00:20:29.641Z,2.87
2018-12-14T00:21:29.648Z,2.85
2018-12-14T00:22:29.648Z,2.82
2018-12-14T00:23:29.696Z,2.84
2018-12-14T00:24:29.641Z,2.82
2018-12-14T00:25:29.623Z,2.74
2018-12-14T00:26:29.662Z,2.74
2018-12-14T00:27:29.686Z,2.74
2018-12-14T00:28:29.672Z,2.72
2018-12-14T00:29:29.690Z,2.75
2018-12-14T00:30:29.619Z,2.78
2018-12-14T00:31:29.651Z,2.72
2018-12-14T00:32:29.637Z,2.78
2018-12-14T00:33:29.592Z,2.77
2018-12-14T00:34:29.651Z,2.75
2018-12-14T00:35:29.681Z,2.81
2018-12-14T00:36:29.684Z,2.79
2018-12-14T00:37:29.639Z,2.75
2018-12-14T00:38:29.666Z,2.79
2018-12-14T00:39:29.579Z,2.71
2018-12-14T00:40:29.687Z,2.67
2018-12-14T00:41:29.587Z,2.60
2018-12-14T00:42:29.604Z,2.66
2018-12-14T00:43:29.617Z,2.67
2018-12-14T00:44:29.602Z,2.72
2018-12-14T00:45:29.579Z,2.78
2018-12-14T00:46:29.576Z,2.74
2018-12-14T00:47:29.644Z,2.64
2018-12-14T00:48:29.629Z,2.67
2018-12-14T00:49:29.596Z,2.64
2018-12-14T00:50:29.602Z,2.61
2018-12-14T00:51:29.547Z,2.67
2018-12-14T00:52:29.515Z,2.67
2018-12-14T00:53:29.570Z,2.69
2018-12-14T00:54:29.561Z,2.63
2018-12-14T00:55:29.609Z,2.67
2018-12-14T00:56:29.585Z,2.66
2018-12-14T00:57:29.548Z,2.69
2018-12-14T00:58:29.571Z,2.69
2018-12-14T00:59:29.617Z,2.69
2018-12-14T01:00:29.565Z,2.67
2018-12-14T01:01:29.582Z,2.74
2018-12-14T01:02:29.641Z,2.64
2018-12-14T01:03:29.605Z,2.75
2018-12-14T01:04:29.563Z,2.71
2018-12-14T01:05:29.507Z,2.60
2018-12-14T01:06:29.558Z,2.64
2018-12-14T01:07:29.497Z,2.66
2018-12-14T01:08:29.517Z,2.57
2018-12-14T01:09:29.533Z,2.56
2018-12-14T01:10:29.498Z,2.64
2018-12-14T01:11:29.514Z,2.57
2018-12-14T01:12:29.480Z,2.64
2018-12-14T01:13:29.573Z,2.67
2018-12-14T01:14:29.451Z,2.66
2018-12-14T01:15:29.518Z,2.64
2018-12-14T01:16:29.469Z,2.63
2018-12-14T01:17:29.515Z,2.63
2018-12-14T01:18:29.505Z,2.63
2018-12-14T01:19:29.496Z,2.64
2018-12-14T01:20:29.427Z,2.60
2018-12-14T01:21:29.516Z,2.61
2018-12-14T01:22:29.483Z,2.71
2018-12-14T01:23:29.451Z,2.56
2018-12-14T01:24:29.474Z,2.63
2018-12-14T01:25:29.521Z,2.56
2018-12-14T01:26:29.510Z,2.54
2018-12-14T01:27:29.464Z,2.66
2018-12-14T01:28:29.483Z,2.61
2018-12-14T01:29:29.401Z,2.63
2018-12-14T01:30:29.514Z,2.61
2018-12-14T01:31:29.413Z,2.52
2018-12-14T01:32:29.467Z,2.57
2018-12-14T01:33:29.426Z,2.49
2018-12-14T01:34:29.379Z,2.49
2018-12-14T01:35:29.356Z,2.49
2018-12-14T01:36:29.361Z,2.48
2018-12-14T01:37:29.517Z,2.52
2018-12-14T01:38:29.458Z,2.52
2018-12-14T01:39:29.383Z,2.49
2018-12-14T01:40:29.390Z,2.48
2018-12-14T01:41:29.343Z,2.52
2018-12-14T01:42:29.395Z,2.59
2018-12-14T01:43:29.399Z,2.59
2018-12-14T01:44:29.468Z,2.53
2018-12-14T01:45:29.405Z,2.46
2018-12-14T01:46:29.400Z,2.56
2018-12-14T01:47:29.376Z,2.52
2018-12-14T01:48:29.408Z,2.43
2018-12-14T01:49:29.324Z,2.41
2018-12-14T01:50:29.352Z,2.45
2018-12-14T01:51:29.404Z,2.39
2018-12-14T01:52:29.376Z,2.39
2018-12-14T01:53:29.287Z,2.38
2018-12-14T01:54:29.348Z,2.28
2018-12-14T01:55:29.341Z,2.30
2018-12-14T01:56:29.345Z,2.38
2018-12-14T01:57:29.340Z,2.36
2018-12-14T01:58:29.341Z,2.41
2018-12-14T01:59:29.299Z,2.36
2018-12-14T02:00:29.283Z,2.41
2018-12-14T02:01:29.336Z,2.39
2018-12-14T02:02:37.309Z,2.38
2018-12-14T02:03:29.402Z,2.31
2018-12-14T02:04:29.367Z,2.35
2018-12-14T02:05:29.745Z,2.24
2018-12-14T02:06:29.279Z,2.31
2018-12-14T02:07:29.278Z,2.21
2018-12-14T02:08:29.311Z,2.27
2018-12-14T02:09:29.373Z,2.25
2018-12-14T02:10:29.284Z,2.30
2018-12-14T02:11:29.249Z,2.28
2018-12-14T02:12:29.237Z,2.28
2018-12-14T02:13:29.303Z,2.30
2018-12-14T02:14:29.257Z,2.30
2018-12-14T02:15:29.295Z,2.27
2018-12-14T02:16:29.268Z,2.21
2018-12-14T02:17:29.270Z,2.20
2018-12-14T02:18:29.203Z,2.20
2018-12-14T02:19:29.281Z,2.20
2018-12-14T02:20:29.238Z,2.18
2018-12-14T02:21:29.318Z,2.18
2018-12-14T02:22:29.186Z,2.23
2018-12-14T02:23:29.272Z,2.23
2018-12-14T02:24:29.226Z,2.23
2018-12-14T02:25:29.212Z,2.24
2018-12-14T02:26:29.252Z,2.20
2018-12-14T02:27:29.174Z,2.21
2018-12-14T02:28:29.193Z,2.23
2018-12-14T02:29:29.208Z,2.17
2018-12-14T02:30:29.266Z,2.25
2018-12-14T02:31:29.262Z,2.18
2018-12-14T02:32:29.154Z,2.20
2018-12-14T02:33:29.212Z,2.21
2018-12-14T02:34:29.221Z,2.20
2018-12-14T02:35:29.172Z,2.16
2018-12-14T02:36:29.294Z,2.16
2018-12-14T02:37:29.191Z,2.12
2018-12-14T02:38:29.195Z,2.20
2018-12-14T02:39:29.121Z,2.17
2018-12-14T02:40:29.136Z,2.10
2018-12-14T02:41:29.144Z,2.21
2018-12-14T02:42:29.167Z,2.21
2018-12-14T02:43:29.177Z,2.12
2018-12-14T02:44:29.137Z,2.09
2018-12-14T02:45:29.090Z,2.16
2018-12-14T02:46:29.159Z,2.14
2018-12-14T02:47:29.135Z,2.12
2018-12-14T02:48:29.133Z,2.07
2018-12-14T02:49:29.098Z,2.16
2018-12-14T02:50:29.148Z,2.14
2018-12-14T02:51:29.182Z,2.06
2018-12-14T02:52:29.077Z,2.10
2018-12-14T02:53:29.134Z,2.10
2018-12-14T02:54:29.052Z,2.10
2018-12-14T02:55:29.112Z,2.07
2018-12-14T02:56:29.131Z,2.21
2018-12-14T02:57:29.172Z,2.17
2018-12-14T02:58:29.072Z,2.23
2018-12-14T02:59:29.062Z,2.16
2018-12-14T03:00:29.140Z,2.21
2018-12-14T03:01:29.066Z,2.25
2018-12-14T03:02:29.055Z,2.24
2018-12-14T03:03:29.105Z,2.31
2018-12-14T03:04:29.075Z,2.20
2018-12-14T03:05:29.009Z,2.20
2018-12-14T03:06:29.123Z,2.25
2018-12-14T03:07:29.096Z,2.21
2018-12-14T03:08:29.126Z,2.17
2018-12-14T03:09:29.074Z,2.20
2018-12-14T03:10:29.041Z,2.20
2018-12-14T03:11:29.079Z,2.10
2018-12-14T03:12:29.048Z,2.18
2018-12-14T03:13:29.106Z,2.16
2018-12-14T03:14:29.105Z,2.14
2018-12-14T03:15:29.034Z,2.14
2018-12-14T03:16:29.015Z,2.09
2018-12-14T03:17:29.003Z,2.10
2018-12-14T03:18:29.004Z,2.14
2018-12-14T03:19:29.069Z,2.07
2018-12-14T03:20:29.077Z,2.10
2018-12-14T03:21:28.992Z,1.98
2018-12-14T03:22:29.015Z,2.00
2018-12-14T03:23:29.005Z,2.12
2018-12-14T03:24:28.997Z,2.03
2018-12-14T03:25:29.016Z,2.14
2018-12-14T03:26:28.956Z,2.09
2018-12-14T03:27:28.973Z,2.17
2018-12-14T03:28:28.968Z,2.21
2018-12-14T03:29:28.952Z,2.20
2018-12-14T03:30:28.971Z,2.23
2018-12-14T03:31:28.978Z,2.25
2018-12-14T03:32:28.996Z,2.21
2018-12-14T03:33:28.933Z,2.18
2018-12-14T03:34:29.002Z,2.24
2018-12-14T03:35:28.981Z,2.23
2018-12-14T03:36:28.913Z,2.18
2018-12-14T03:37:29.001Z,2.20
2018-12-14T03:38:28.949Z,2.30
2018-12-14T03:39:28.995Z,2.31
2018-12-14T03:40:28.936Z,2.36
2018-12-14T03:41:28.938Z,2.38
2018-12-14T03:42:34.425Z,2.38
2018-12-14T03:43:29.026Z,2.45
2018-12-14T03:44:28.915Z,2.42
2018-12-14T03:45:28.949Z,2.46
2018-12-14T03:46:28.905Z,2.45
2018-12-14T03:47:28.928Z,2.46
2018-12-14T03:48:28.900Z,2.53
2018-12-14T03:49:28.878Z,2.41
2018-12-14T03:50:28.887Z,2.48
2018-12-14T03:51:28.930Z,2.52
2018-12-14T03:52:28.858Z,2.46
2018-12-14T03:53:28.957Z,2.59
2018-12-14T03:54:28.834Z,2.53
2018-12-14T03:55:28.822Z,2.56
2018-12-14T03:56:28.847Z,2.59
2018-12-14T03:57:28.849Z,2.57
2018-12-14T03:58:28.832Z,2.56
2018-12-14T03:59:28.878Z,2.67
2018-12-14T04:00:28.918Z,2.60
2018-12-14T04:01:28.835Z,2.61
2018-12-14T04:02:28.834Z,2.61
2018-12-14T04:03:30.504Z,2.61
2018-12-14T04:04:28.857Z,2.54
2018-12-14T04:05:28.904Z,2.63
2018-12-14T04:06:28.850Z,2.48
2018-12-14T04:07:28.845Z,2.56
2018-12-14T04:08:28.817Z,2.56
2018-12-14T04:09:28.867Z,2.56
2018-12-14T04:10:28.823Z,2.56
2018-12-14T04:11:28.851Z,2.61
2018-12-14T04:12:28.777Z,2.63
2018-12-14T04:13:28.840Z,2.54
2018-12-14T04:14:30.528Z,2.64
2018-12-14T04:15:28.822Z,2.56
2018-12-14T04:16:28.827Z,2.52
2018-12-14T04:17:28.742Z,2.63
2018-12-14T04:18:28.802Z,2.46
2018-12-14T04:19:28.791Z,2.46
2018-12-14T04:20:28.844Z,2.52
2018-12-14T04:21:28.782Z,2.60
2018-12-14T04:22:28.831Z,2.56
2018-12-14T04:23:28.731Z,2.54
2018-12-14T04:24:28.844Z,2.60
2018-12-14T04:25:28.837Z,2.56
2018-12-14T04:26:28.714Z,2.60
2018-12-14T04:27:28.792Z,2.61
2018-12-14T04:28:28.764Z,2.59
2018-12-14T04:29:28.715Z,2.59
2018-12-14T04:30:28.788Z,2.59
2018-12-14T04:31:28.795Z,2.48
2018-12-14T04:32:28.775Z,2.48
2018-12-14T04:33:28.782Z,2.46
2018-12-14T04:34:28.789Z,2.42
2018-12-14T04:35:28.762Z,2.42
2018-12-14T04:36:28.734Z,2.39
2018-12-14T04:37:28.775Z,2.38
2018-12-14T04:38:28.699Z,2.34
2018-12-14T04:39:28.754Z,2.24
2018-12-14T04:40:28.718Z,2.27
2018-12-14T04:41:28.701Z,2.28
2018-12-14T04:42:28.682Z,2.24
2018-12-14T04:43:28.687Z,2.35
2018-12-14T04:44:28.691Z,2.35
2018-12-14T04:45:28.777Z,2.27
2018-12-14T04:46:28.700Z,2.23
2018-12-14T04:47:28.690Z,2.18
2018-12-14T04:48:28.698Z,2.23
2018-12-14T04:49:28.698Z,2.23
2018-12-14T04:50:28.654Z,2.20
2018-12-14T04:51:28.679Z,2.16
2018-12-14T04:52:28.680Z,2.18
2018-12-14T04:53:28.653Z,2.20
2018-12-14T04:54:28.639Z,2.18
2018-12-14T04:55:28.673Z,2.09
2018-12-14T04:56:28.625Z,2.07
2018-12-14T04:57:28.690Z,2.12
2018-12-14T04:58:28.694Z,2.12
2018-12-14T04:59:28.683Z,2.17
2018-12-14T05:00:28.619Z,2.17
2018-12-14T05:01:28.634Z,2.14
2018-12-14T05:02:28.627Z,2.17
2018-12-14T05:03:28.662Z,2.07
2018-12-14T05:04:28.692Z,2.12
2018-12-14T05:05:28.671Z,2.09
2018-12-14T05:06:28.661Z,2.16
2018-12-14T05:07:28.673Z,2.10
2018-12-14T05:08:28.678Z,2.14
2018-12-14T05:09:28.708Z,2.14
2018-12-14T05:10:28.628Z,2.10
2018-12-14T05:11:28.577Z,2.17
2018-12-14T05:12:28.574Z,2.07
2018-12-14T05:13:28.618Z,2.06
2018-12-14T05:14:28.580Z,2.03
2018-12-14T05:15:28.597Z,2.05
2018-12-14T05:16:28.676Z,2.10
2018-12-14T05:17:28.594Z,2.03
2018-12-14T05:18:28.566Z,2.07
2018-12-14T05:19:28.556Z,2.00
2018-12-14T05:20:28.566Z,2.07
2018-12-14T05:21:28.554Z,2.10
2018-12-14T05:22:28.545Z,2.10
2018-12-14T05:23:28.618Z,2.07
2018-12-14T05:24:28.526Z,2.12
2018-12-14T05:25:28.486Z,2.06
2018-12-14T05:26:29.022Z,2.06
2018-12-14T05:27:28.616Z,2.03
2018-12-14T05:28:28.572Z,2.10
2018-12-14T05:29:28.550Z,2.09
2018-12-14T05:30:28.507Z,2.10
2018-12-14T05:31:28.517Z,2.09
2018-12-14T05:32:28.526Z,2.05
2018-12-14T05:33:28.545Z,2.16
2018-12-14T05:34:28.548Z,2.07
2018-12-14T05:35:28.519Z,2.07
2018-12-14T05:36:28.512Z,2.09
2018-12-14T05:37:28.510Z,2.06
2018-12-14T05:38:28.476Z,2.05
2018-12-14T05:39:28.452Z,2.05
2018-12-14T05:40:28.456Z,1.99
2018-12-14T05:41:28.518Z,1.93
2018-12-14T05:42:28.527Z,1.93
2018-12-14T05:43:28.446Z,1.98
2018-12-14T05:44:28.504Z,1.86
2018-12-14T05:45:28.455Z,1.88
2018-12-14T05:46:28.414Z,1.83
2018-12-14T05:47:28.421Z,1.83
2018-12-14T05:48:28.427Z,1.84
2018-12-14T05:49:28.416Z,1.81
2018-12-14T05:50:28.465Z,1.84
2018-12-14T05:51:28.466Z,2.02
2018-12-14T05:52:28.414Z,1.95
2018-12-14T05:53:28.453Z,1.86
2018-12-14T05:54:28.458Z,1.95
2018-12-14T05:55:28.443Z,1.98
2018-12-14T05:56:28.393Z,1.84
2018-12-14T05:57:28.353Z,1.84
2018-12-14T05:58:28.389Z,1.95
2018-12-14T05:59:28.437Z,1.87
2018-12-14T06:00:28.375Z,1.93
2018-12-14T06:01:28.425Z,1.98
2018-12-14T06:02:28.379Z,1.93
2018-12-14T06:03:28.457Z,2.00
2018-12-14T06:04:28.484Z,1.95
2018-12-14T06:05:28.392Z,1.88
2018-12-14T06:06:28.403Z,1.88
2018-12-14T06:07:28.367Z,1.91
2018-12-14T06:08:28.312Z,1.87
2018-12-14T06:09:28.363Z,1.87
2018-12-14T06:10:28.401Z,1.91
2018-12-14T06:11:28.371Z,1.83
2018-12-14T06:12:28.352Z,1.87
2018-12-14T06:13:28.369Z,1.84
2018-12-14T06:14:28.372Z,1.84
2018-12-14T06:15:28.318Z,1.73
2018-12-14T06:16:28.314Z,1.83
2018-12-14T06:17:28.324Z,1.81
2018-12-14T06:18:28.363Z,1.70
2018-12-14T06:19:28.367Z,1.70
2018-12-14T06:20:28.369Z,1.69
2018-12-14T06:21:28.946Z,1.70
2018-12-14T06:22:28.950Z,1.70
2018-12-14T06:23:28.305Z,1.76
2018-12-14T06:24:28.330Z,1.73
2018-12-14T06:25:28.312Z,1.76
2018-12-14T06:26:28.306Z,1.72
2018-12-14T06:27:28.326Z,1.70
2018-12-14T06:28:28.260Z,1.70
2018-12-14T06:29:28.266Z,1.72
2018-12-14T06:30:28.291Z,1.69
2018-12-14T06:31:28.271Z,1.66
2018-12-14T06:32:28.258Z,1.66
2018-12-14T06:33:28.273Z,1.69
2018-12-14T06:34:28.207Z,1.77
2018-12-14T06:35:28.235Z,1.69
2018-12-14T06:36:28.272Z,1.70
2018-12-14T06:37:28.239Z,1.58
2018-12-14T06:38:28.239Z,1.69
2018-12-14T06:39:28.240Z,1.72
2018-12-14T06:40:28.225Z,1.69
2018-12-14T06:41:28.290Z,1.77
2018-12-14T06:42:28.281Z,1.80
2018-12-14T06:43:28.221Z,1.76
2018-12-14T06:44:28.268Z,1.87
2018-12-14T06:45:28.165Z,1.80
2018-12-14T06:46:28.225Z,1.84
2018-12-14T06:47:28.185Z,1.81
2018-12-14T06:48:28.186Z,1.86
2018-12-14T06:49:28.179Z,1.83
2018-12-14T06:50:28.221Z,1.79
2018-12-14T06:51:28.203Z,1.80
2018-12-14T06:52:28.214Z,1.81
2018-12-14T06:53:28.231Z,1.88
2018-12-14T06:54:28.227Z,1.84
2018-12-14T06:55:28.252Z,1.87
2018-12-14T06:56:28.254Z,2.00
2018-12-14T06:57:28.159Z,1.95
2018-12-14T06:58:28.130Z,1.99
2018-12-14T06:59:28.192Z,1.83
2018-12-14T07:00:28.144Z,1.98
2018-12-14T07:01:28.184Z,1.83
2018-12-14T07:02:28.148Z,1.87
2018-12-14T07:03:28.102Z,1.83
2018-12-14T07:04:28.160Z,1.87
2018-12-14T07:05:28.159Z,1.81
2018-12-14T07:06:28.180Z,1.90
2018-12-14T07:07:28.203Z,1.83
2018-12-14T07:08:28.150Z,1.81
2018-12-14T07:09:28.257Z,1.88
2018-12-14T07:10:28.097Z,1.88
2018-12-14T07:11:28.111Z,1.77
2018-12-14T07:12:28.142Z,1.81
2018-12-14T07:13:28.197Z,1.84
2018-12-14T07:14:28.065Z,1.86
2018-12-14T07:15:28.061Z,1.93
2018-12-14T07:16:28.051Z,1.93
2018-12-14T07:17:28.095Z,2.03
2018-12-14T07:18:28.050Z,2.07
2018-12-14T07:19:28.730Z,2.05
2018-12-14T07:20:28.101Z,1.98
2018-12-14T07:21:28.095Z,1.98
2018-12-14T07:22:28.074Z,1.99
2018-12-14T07:23:28.130Z,2.02
2018-12-14T07:24:28.092Z,2.05
2018-12-14T07:25:28.021Z,1.95
2018-12-14T07:26:28.214Z,1.93
2018-12-14T07:27:28.042Z,1.84
2018-12-14T07:28:28.036Z,1.87
2018-12-14T07:29:28.008Z,1.87
2018-12-14T07:30:28.028Z,1.93
2018-12-14T07:31:28.033Z,1.90
2018-12-14T07:32:28.066Z,2.02
2018-12-14T07:33:28.004Z,2.00
2018-12-14T07:34:28.059Z,1.99
2018-12-14T07:35:27.987Z,1.91
2018-12-14T07:36:28.071Z,1.86
2018-12-14T07:37:28.017Z,1.93
2018-12-14T07:38:27.969Z,2.05
2018-12-14T07:39:28.001Z,2.03
2018-12-14T07:40:27.967Z,1.91
2018-12-14T07:41:27.968Z,1.88
2018-12-14T07:42:28.010Z,1.95
2018-12-14T07:43:28.441Z,1.95
2018-12-14T07:44:27.974Z,2.02
2018-12-14T07:45:27.952Z,2.09
2018-12-14T07:46:27.956Z,2.02
2018-12-14T07:47:27.948Z,2.02
2018-12-14T07:48:27.948Z,2.07
2018-12-14T07:49:27.929Z,2.14
2018-12-14T07:50:27.997Z,2.14
2018-12-14T07:51:27.991Z,2.05
2018-12-14T07:52:27.904Z,2.03
2018-12-14T07:53:27.954Z,2.02
2018-12-14T07:54:27.926Z,2.05
2018-12-14T07:55:27.934Z,2.10
2018-12-14T07:56:27.913Z,1.95
2018-12-14T07:57:27.941Z,1.91
2018-12-14T07:58:28.014Z,2.10
2018-12-14T07:59:27.894Z,2.12
2018-12-14T08:00:27.945Z,2.10
2018-12-14T08:01:27.916Z,2.03
2018-12-14T08:02:27.978Z,2.09
2018-12-14T08:03:27.891Z,2.07
2018-12-14T08:04:27.939Z,2.03
2018-12-14T08:05:27.907Z,2.07
2018-12-14T08:06:27.881Z,2.16
2018-12-14T08:07:27.880Z,2.18
2018-12-14T08:08:27.994Z,2.10
2018-12-14T08:09:27.915Z,2.06
2018-12-14T08:10:27.886Z,2.06
2018-12-14T08:11:27.965Z,2.16
2018-12-14T08:12:27.870Z,2.20
2018-12-14T08:13:27.802Z,2.07
2018-12-14T08:14:27.888Z,2.05
2018-12-14T08:15:27.923Z,2.00
2018-12-14T08:16:27.825Z,2.10
2018-12-14T08:17:27.881Z,2.16
2018-12-14T08:18:27.850Z,2.10
2018-12-14T08:19:27.822Z,2.20
2018-12-14T08:20:27.818Z,2.12
2018-12-14T08:21:27.857Z,2.14
2018-12-14T08:22:27.829Z,2.06
2018-12-14T08:23:27.857Z,2.12
2018-12-14T08:24:27.912Z,2.14
2018-12-14T08:25:27.790Z,2.14
2018-12-14T08:26:27.789Z,2.05
2018-12-14T08:27:27.801Z,2.14
2018-12-14T08:28:27.794Z,2.09
2018-12-14T08:29:27.837Z,2.09
2018-12-14T08:30:27.765Z,2.12
2018-12-14T08:31:27.745Z,2.12
2018-12-14T08:32:27.795Z,2.20
2018-12-14T08:33:27.750Z,2.24
2018-12-14T08:34:27.834Z,2.90
2018-12-14T08:35:27.842Z,3.52
2018-12-14T08:36:27.762Z,3.96
2018-12-14T08:37:27.744Z,4.26
2018-12-14T08:38:27.750Z,5.07
2018-12-14T08:39:27.744Z,5.36
2018-12-14T08:40:27.739Z,5.72
2018-12-14T08:41:27.799Z,5.40
2018-12-14T08:42:27.727Z,5.39
2018-12-14T08:43:27.760Z,6.04
2018-12-14T08:44:27.732Z,6.15
2018-12-14T08:45:27.778Z,6.41
2018-12-14T08:46:27.796Z,6.04
2018-12-14T08:47:27.718Z,5.58
2018-12-14T08:48:27.717Z,5.10
2018-12-14T08:49:27.872Z,5.18
2018-12-14T08:50:27.692Z,5.20
2018-12-14T08:51:27.707Z,5.64
2018-12-14T08:52:27.808Z,5.83
2018-12-14T08:53:27.688Z,5.67
2018-12-14T08:54:27.713Z,5.06
2018-12-14T08:55:27.725Z,5.35
2018-12-14T08:56:27.694Z,6.01
2018-12-14T08:57:27.718Z,6.48
2018-12-14T08:58:27.690Z,6.67
2018-12-14T08:59:27.662Z,6.98
2018-12-14T09:00:27.709Z,6.94
2018-12-14T09:01:27.727Z,6.88
2018-12-14T09:02:27.736Z,6.95
2018-12-14T09:03:27.654Z,6.95
2018-12-14T09:04:27.703Z,6.97
2018-12-14T09:05:27.725Z,7.32
2018-12-14T09:06:27.644Z,7.42
2018-12-14T09:07:27.723Z,7.61
2018-12-14T09:08:27.758Z,7.79
2018-12-14T09:09:27.666Z,7.39
2018-12-14T09:10:27.673Z,7.79
2018-12-14T09:11:27.652Z,8.05
2018-12-14T09:12:27.646Z,7.55
2018-12-14T09:13:27.681Z,7.45
2018-12-14T09:14:27.684Z,6.76
2018-12-14T09:15:27.631Z,6.92
2018-12-14T09:16:27.614Z,6.92
2018-12-14T09:17:27.633Z,6.87
2018-12-14T09:18:27.695Z,6.91
2018-12-14T09:19:27.612Z,6.84
2018-12-14T09:20:27.627Z,7.07
2018-12-14T09:21:27.675Z,6.89
2018-12-14T09:22:27.693Z,6.44
2018-12-14T09:23:27.641Z,6.22
2018-12-14T09:24:27.640Z,6.12
2018-12-14T09:25:27.673Z,5.30
2018-12-14T09:26:29.653Z,5.20
2018-12-14T09:27:27.652Z,5.54
2018-12-14T09:28:27.724Z,5.43
2018-12-14T09:29:27.643Z,5.39
2018-12-14T09:30:27.700Z,5.35
2018-12-14T09:31:27.649Z,4.86
2018-12-14T09:32:27.614Z,5.17
2018-12-14T09:33:27.727Z,4.91
2018-12-14T09:34:27.624Z,4.84
2018-12-14T09:35:27.656Z,4.69
2018-12-14T09:36:27.668Z,4.26
2018-12-14T09:37:27.647Z,4.15
2018-12-14T09:38:27.633Z,4.04
2018-12-14T09:39:27.637Z,4.58
2018-12-14T09:40:27.627Z,4.06
2018-12-14T09:41:27.594Z,3.87
2018-12-14T09:42:27.695Z,3.78
2018-12-14T09:43:27.591Z,3.76
2018-12-14T09:44:27.607Z,3.48
2018-12-14T09:45:27.584Z,3.60
2018-12-14T09:46:27.585Z,3.65
2018-12-14T09:47:27.590Z,3.76
2018-12-14T09:48:27.581Z,3.78
2018-12-14T09:49:27.609Z,3.93
2018-12-14T09:50:29.038Z,3.70
2018-12-14T09:51:27.640Z,3.75
2018-12-14T09:52:27.583Z,3.93
2018-12-14T09:53:27.615Z,4.05
2018-12-14T09:54:27.614Z,4.09
2018-12-14T09:55:27.648Z,4.06
2018-12-14T09:56:27.574Z,4.00
2018-12-14T09:57:27.561Z,4.04
2018-12-14T09:58:27.564Z,4.23
2018-12-14T09:59:27.560Z,4.65
2018-12-14T10:00:27.625Z,4.91
2018-12-14T10:01:27.531Z,4.85
2018-12-14T10:02:27.564Z,5.00
2018-12-14T10:03:27.508Z,5.45
2018-12-14T10:04:27.554Z,5.35
2018-12-14T10:05:27.593Z,5.12
2018-12-14T10:06:27.555Z,5.04
2018-12-14T10:07:27.539Z,4.91
2018-12-14T10:08:27.541Z,4.91
2018-12-14T10:09:27.532Z,5.89
2018-12-14T10:10:27.523Z,6.03
2018-12-14T10:11:27.546Z,6.27
2018-12-14T10:12:27.599Z,6.33
2018-12-14T10:13:27.554Z,6.40
2018-12-14T10:14:27.560Z,6.91
2018-12-14T10:15:27.515Z,6.89
2018-12-14T10:16:27.531Z,7.21
2018-12-14T10:17:27.507Z,7.53
2018-12-14T10:18:27.505Z,7.43
2018-12-14T10:19:27.554Z,7.17
2018-12-14T10:20:27.514Z,6.56
2018-12-14T10:21:27.540Z,6.91
2018-12-14T10:22:27.631Z,7.17
2018-12-14T10:23:27.605Z,7.40
2018-12-14T10:24:27.498Z,6.44
2018-12-14T10:25:27.487Z,6.01
2018-12-14T10:26:27.699Z,5.64
2018-12-14T10:27:27.557Z,4.94
2018-12-14T10:28:27.531Z,4.77
2018-12-14T10:29:27.599Z,4.50
2018-12-14T10:30:27.679Z,4.26
2018-12-14T10:31:27.681Z,4.02
2018-12-14T10:32:27.507Z,3.98
2018-12-14T10:33:27.557Z,4.06
2018-12-14T10:34:27.501Z,4.02
2018-12-14T10:35:27.591Z,3.87
2018-12-14T10:36:27.487Z,3.76
2018-12-14T10:37:27.536Z,3.90
2018-12-14T10:38:27.603Z,3.88
2018-12-14T10:39:27.656Z,3.97
2018-12-14T10:40:27.473Z,3.80
2018-12-14T10:41:27.530Z,3.88
2018-12-14T10:42:27.549Z,3.88
2018-12-14T10:43:27.521Z,3.97
2018-12-14T10:44:29.901Z,4.00
2018-12-14T10:45:27.531Z,3.93
2018-12-14T10:46:27.549Z,3.88
2018-12-14T10:47:27.472Z,3.80
2018-12-14T10:48:27.584Z,3.96
2018-12-14T10:49:27.457Z,3.87
2018-12-14T10:50:27.516Z,3.80
2018-12-14T10:51:27.492Z,3.83
2018-12-14T10:52:27.484Z,3.87
2018-12-14T10:53:27.490Z,3.98
2018-12-14T10:54:27.578Z,4.02
2018-12-14T10:55:27.430Z,4.02
2018-12-14T10:56:27.457Z,4.04
2018-12-14T10:57:27.483Z,3.98
2018-12-14T10:58:27.469Z,4.15
2018-12-14T10:59:27.415Z,4.15
2018-12-14T11:00:27.421Z,4.22
2018-12-14T11:01:27.399Z,3.93
2018-12-14T11:02:27.387Z,4.05
2018-12-14T11:03:27.405Z,3.93
2018-12-14T11:04:28.133Z,3.83
2018-12-14T11:05:27.508Z,3.84
2018-12-14T11:06:27.413Z,3.98
2018-12-14T11:07:27.436Z,4.11
2018-12-14T11:08:27.429Z,4.15
2018-12-14T11:09:27.422Z,4.06
2018-12-14T11:10:27.426Z,3.94
2018-12-14T11:11:27.405Z,3.84
2018-12-14T11:12:27.369Z,3.96
2018-12-14T11:13:27.441Z,4.08
2018-12-14T11:14:27.366Z,3.78
2018-12-14T11:15:27.463Z,3.73
2018-12-14T11:16:27.374Z,3.79
2018-12-14T11:17:27.368Z,3.79
2018-12-14T11:18:27.430Z,3.79
2018-12-14T11:19:27.367Z,3.79
2018-12-14T11:20:27.404Z,3.78
2018-12-14T11:21:27.503Z,3.79
2018-12-14T11:22:27.379Z,3.75
2018-12-14T11:23:27.377Z,3.76
2018-12-14T11:24:27.402Z,3.90
2018-12-14T11:25:27.329Z,4.33
2018-12-14T11:26:27.362Z,4.29
2018-12-14T11:27:27.331Z,4.32
2018-12-14T11:28:27.351Z,4.33
2018-12-14T11:29:27.354Z,4.02
2018-12-14T11:30:27.357Z,3.90
2018-12-14T11:31:27.362Z,3.94
2018-12-14T11:32:27.407Z,3.91
2018-12-14T11:33:27.348Z,4.23
2018-12-14T11:34:29.920Z,4.16
2018-12-14T11:35:27.358Z,4.08
2018-12-14T11:36:27.402Z,4.04
2018-12-14T11:37:27.416Z,4.05
2018-12-14T11:38:27.328Z,4.09
2018-12-14T11:39:27.312Z,4.22
2018-12-14T11:40:27.369Z,4.18
2018-12-14T11:41:27.341Z,4.15
2018-12-14T11:42:27.354Z,4.08
2018-12-14T11:43:27.304Z,4.09
2018-12-14T11:44:27.302Z,4.09
2018-12-14T11:45:27.375Z,4.09
2018-12-14T11:46:27.395Z,4.06
2018-12-14T11:47:28.145Z,4.02
2018-12-14T11:48:27.342Z,4.08
2018-12-14T11:49:27.296Z,4.23
2018-12-14T11:50:27.315Z,4.02
2018-12-14T11:51:27.411Z,4.05
2018-12-14T11:52:27.357Z,4.04
2018-12-14T11:53:27.297Z,3.97
2018-12-14T11:54:27.345Z,3.94
2018-12-14T11:55:27.390Z,4.09
2018-12-14T11:56:27.317Z,4.18
2018-12-14T11:57:27.265Z,4.06
2018-12-14T11:58:27.272Z,3.90
2018-12-14T11:59:27.318Z,3.84
2018-12-14T12:00:27.223Z,4.06
2018-12-14T12:01:29.101Z,3.98
2018-12-14T12:02:27.241Z,3.84
2018-12-14T12:03:27.272Z,3.96
2018-12-14T12:04:27.359Z,3.83
2018-12-14T12:05:27.271Z,3.94
2018-12-14T12:06:27.281Z,4.02
2018-12-14T12:07:27.274Z,4.06
2018-12-14T12:08:27.262Z,4.05
2018-12-14T12:09:27.260Z,3.91
2018-12-14T12:10:27.289Z,3.90
2018-12-14T12:11:27.332Z,3.76
2018-12-14T12:12:27.298Z,3.78
2018-12-14T12:13:27.289Z,3.79
2018-12-14T12:14:27.284Z,3.97
2018-12-14T12:15:27.274Z,4.08
2018-12-14T12:16:27.276Z,4.05
2018-12-14T12:17:27.262Z,4.08
2018-12-14T12:18:27.442Z,4.05
2018-12-14T12:19:27.426Z,4.04
2018-12-14T12:20:27.254Z,4.02
2018-12-14T12:21:27.317Z,4.05
2018-12-14T12:22:27.301Z,4.12
2018-12-14T12:23:27.189Z,4.23
2018-12-14T12:24:27.152Z,4.09
2018-12-14T12:25:27.413Z,4.02
2018-12-14T12:26:27.282Z,4.00
2018-12-14T12:27:27.177Z,4.04
2018-12-14T12:28:27.200Z,4.05
2018-12-14T12:29:27.171Z,4.06
2018-12-14T12:30:27.168Z,4.05
2018-12-14T12:31:27.216Z,3.97
2018-12-14T12:32:27.213Z,4.04
2018-12-14T12:33:27.221Z,3.98
2018-12-14T12:34:27.173Z,4.04
2018-12-14T12:35:27.156Z,4.02
2018-12-14T12:36:27.118Z,4.08
2018-12-14T12:37:27.152Z,4.42
2018-12-14T12:38:27.178Z,4.51
2018-12-14T12:39:27.097Z,4.59
2018-12-14T12:40:27.204Z,4.52
2018-12-14T12:41:27.199Z,4.58
2018-12-14T12:42:27.095Z,5.24
2018-12-14T12:43:27.140Z,5.33
2018-12-14T12:44:33.354Z,4.97
2018-12-14T12:45:27.104Z,5.04
2018-12-14T12:46:27.127Z,4.70
2018-12-14T12:47:27.144Z,4.44
2018-12-14T12:48:27.100Z,4.33
2018-12-14T12:49:28.098Z,4.27
2018-12-14T12:50:27.203Z,4.27
2018-12-14T12:51:27.209Z,4.58
2018-12-14T12:52:27.069Z,4.62
2018-12-14T12:53:27.091Z,4.44
2018-12-14T12:54:27.072Z,4.36
2018-12-14T12:55:27.050Z,4.51
2018-12-14T12:56:27.063Z,4.55
2018-12-14T12:57:27.076Z,4.45
2018-12-14T12:58:27.043Z,4.55
2018-12-14T12:59:27.102Z,4.78
2018-12-14T13:00:27.619Z,4.63
2018-12-14T13:01:27.025Z,4.60
2018-12-14T13:02:27.065Z,4.60
2018-12-14T13:03:27.049Z,4.78
2018-12-14T13:04:27.040Z,4.66
2018-12-14T13:05:27.052Z,4.40
2018-12-14T13:06:27.067Z,4.26
2018-12-14T13:07:27.058Z,4.26
2018-12-14T13:08:27.076Z,4.33
2018-12-14T13:09:27.045Z,4.41
2018-12-14T13:10:26.998Z,4.44
2018-12-14T13:11:27.067Z,4.41
2018-12-14T13:12:27.092Z,4.33
2018-12-14T13:13:27.037Z,4.52
2018-12-14T13:14:26.994Z,4.48
2018-12-14T13:15:27.058Z,4.41
2018-12-14T13:16:27.034Z,4.36
2018-12-14T13:17:27.008Z,4.33
2018-12-14T13:18:27.041Z,4.14